| time (UTC) | temp C | wind direction | speed KPH | gust KPH | rain 1hr cm | rain 24hr cm | rain mn cm | humidity % | barometer mb |
| 20260510132623 | 16 | 261 | 0.0 | 1.6 | 0.00 | 0.00 | 0.00 | 84 | 1016.3 |
| 20260510132121 | 16 | 54 | 0.0 | 0.0 | 0.00 | 0.00 | 0.00 | 84 | 1016.2 |
| 20260510131618 | 16 | 244 | 1.6 | 3.2 | 0.00 | 0.00 | 0.00 | 85 | 1016.2 |
| 20260510131115 | 16 | 63 | 0.0 | 0.0 | 0.00 | 0.00 | 0.00 | 86 | 1016.1 |
| 20260510130611 | 16 | 65 | 0.0 | 0.0 | 0.00 | 0.00 | 0.00 | 86 | 1016.1 |
| 20260510130109 | 16 | 64 | 0.0 | 0.0 | 0.00 | 0.00 | 0.00 | 86 | 1015.9 |
| 20260510125605 | 16 | 58 | 0.0 | 0.0 | 0.00 | 0.00 | 0.00 | 86 | 1016.2 |
| 20260510125102 | 16 | 100 | 0.0 | 0.0 | 0.00 | 0.00 | 0.00 | 86 | 1016.0 |
| 20260510124558 | 16 | 35 | 0.0 | 0.0 | 0.00 | 0.00 | 0.00 | 86 | 1016.0 |
| 20260510124055 | 16 | 155 | 1.6 | 1.6 | 0.00 | 0.00 | 0.00 | 85 | 1015.8 |
| 20260510123550 | 16 | 244 | 0.0 | 1.6 | 0.00 | 0.00 | 0.00 | 85 | 1015.3 |
| 20260510123047 | 16 | 11 | 0.0 | 0.0 | 0.00 | 0.00 | 0.00 | 85 | 1015.3 |
| 20260510122543 | 16 | 73 | 0.0 | 0.0 | 0.00 | 0.00 | 0.00 | 84 | 1015.1 |
| 20260510122039 | 16 | 137 | 0.0 | 0.0 | 0.00 | 0.00 | 0.00 | 84 | 1014.7 |
| 20260510121536 | 17 | 50 | 0.0 | 0.0 | 0.00 | 0.00 | 0.00 | 84 | 1014.5 |
| 20260510121033 | 17 | 60 | 0.0 | 0.0 | 0.00 | 0.00 | 0.00 | 83 | 1014.3 |
| 20260510120531 | 17 | 120 | 0.0 | 0.0 | 0.00 | 0.00 | 0.00 | 83 | 1014.2 |
| 20260510120026 | 17 | 351 | 0.0 | 0.0 | 0.00 | 0.00 | 0.00 | 83 | 1014.2 |
| 20260510115523 | 16 | 61 | 0.0 | 0.0 | 0.00 | 0.00 | 0.00 | 84 | 1014.0 |
| 20260510115020 | 16 | 52 | 0.0 | 0.0 | 0.00 | 0.00 | 0.00 | 83 | 1013.7 |
| 20260510114516 | 17 | 48 | 0.0 | 0.0 | 0.00 | 0.00 | 0.00 | 83 | 1013.3 |
| 20260510114012 | 17 | 45 | 0.0 | 0.0 | 0.00 | 0.00 | 0.00 | 83 | 1013.3 |
| 20260510113508 | 16 | 16 | 0.0 | 0.0 | 0.00 | 0.00 | 0.00 | 83 | 1013.4 |
| 20260510113005 | 16 | 358 | 0.0 | 0.0 | 0.00 | 0.00 | 0.00 | 84 | 1012.9 |
| 20260510112502 | 16 | 34 | 0.0 | 0.0 | 0.00 | 0.00 | 0.00 | 85 | 1013.1 |
| 20260510111958 | 16 | 47 | 0.0 | 0.0 | 0.00 | 0.00 | 0.00 | 84 | 1013.0 |
| 20260510111454 | 16 | 46 | 0.0 | 0.0 | 0.00 | 0.00 | 0.00 | 83 | 1013.0 |
| 20260510110950 | 16 | 40 | 0.0 | 0.0 | 0.00 | 0.00 | 0.00 | 84 | 1012.9 |
| 20260510110447 | 16 | 55 | 0.0 | 0.0 | 0.00 | 0.00 | 0.00 | 83 | 1012.9 |
| 20260510105943 | 16 | 55 | 0.0 | 0.0 | 0.00 | 0.00 | 0.00 | 82 | 1012.7 |
| 20260510105438 | 16 | 55 | 0.0 | 0.0 | 0.00 | 0.00 | 0.00 | 81 | 1012.6 |
| 20260510104934 | 17 | 55 | 0.0 | 0.0 | 0.00 | 0.00 | 0.00 | 81 | 1012.6 |
| 20260510104431 | 17 | 55 | 0.0 | 0.0 | 0.00 | 0.00 | 0.00 | 80 | 1012.4 |
| 20260510103928 | 17 | 55 | 0.0 | 0.0 | 0.00 | 0.00 | 0.00 | 80 | 1012.4 |
| 20260510103426 | 17 | 54 | 0.0 | 0.0 | 0.00 | 0.00 | 0.00 | 80 | 1012.3 |
| 20260510102925 | 17 | 51 | 0.0 | 0.0 | 0.00 | 0.00 | 0.00 | 80 | 1012.3 |
| 20260510102422 | 17 | 49 | 0.0 | 0.0 | 0.00 | 0.00 | 0.00 | 80 | 1012.4 |
| 20260510101919 | 17 | 47 | 0.0 | 0.0 | 0.00 | 0.00 | 0.00 | 80 | 1012.2 |
| 20260510101417 | 17 | 51 | 0.0 | 0.0 | 0.00 | 0.00 | 0.00 | 80 | 1012.3 |
| 20260510100914 | 17 | 54 | 0.0 | 0.0 | 0.00 | 0.00 | 0.00 | 79 | 1012.2 |
| 20260510100411 | 17 | 53 | 0.0 | 0.0 | 0.00 | 0.00 | 0.00 | 79 | 1012.1 |
| 20260510095907 | 17 | 53 | 0.0 | 0.0 | 0.00 | 0.00 | 0.00 | 78 | 1012.2 |
| 20260510095402 | 17 | 53 | 0.0 | 0.0 | 0.00 | 0.00 | 0.00 | 77 | 1012.0 |
| 20260510094902 | 17 | 53 | 0.0 | 0.0 | 0.00 | 0.00 | 0.00 | 78 | 1012.0 |
| 20260510094357 | 17 | 49 | 0.0 | 0.0 | 0.00 | 0.00 | 0.00 | 79 | 1011.9 |
| 20260510093854 | 17 | 57 | 0.0 | 0.0 | 0.00 | 0.00 | 0.00 | 78 | 1011.9 |
| 20260510093349 | 17 | 58 | 0.0 | 0.0 | 0.00 | 0.00 | 0.00 | 77 | 1011.7 |
| 20260510092846 | 17 | 58 | 0.0 | 0.0 | 0.00 | 0.00 | 0.00 | 76 | 1011.7 |
| 20260510092342 | 17 | 58 | 0.0 | 0.0 | 0.00 | 0.00 | 0.00 | 75 | 1011.5 |
| 20260510091838 | 18 | 59 | 0.0 | 0.0 | 0.00 | 0.00 | 0.00 | 74 | 1011.5 |
| 20260510091335 | 18 | 54 | 0.0 | 0.0 | 0.00 | 0.00 | 0.00 | 73 | 1011.8 |
| 20260510090832 | 18 | 52 | 0.0 | 0.0 | 0.00 | 0.00 | 0.00 | 72 | 1011.7 |
| 20260510090328 | 18 | 48 | 0.0 | 0.0 | 0.00 | 0.00 | 0.00 | 71 | 1011.5 |
| 20260510085824 | 18 | 49 | 0.0 | 0.0 | 0.00 | 0.00 | 0.00 | 70 | 1011.8 |
| 20260510085324 | 19 | 48 | 0.0 | 1.6 | 0.00 | 0.00 | 0.00 | 69 | 1011.5 |
| 20260510084820 | 19 | 359 | 3.2 | 3.2 | 0.00 | 0.00 | 0.00 | 69 | 1011.3 |
| 20260510084317 | 18 | 16 | 1.6 | 3.2 | 0.00 | 0.00 | 0.00 | 70 | 1011.2 |
| 20260510083814 | 18 | 331 | 3.2 | 3.2 | 0.00 | 0.00 | 0.00 | 70 | 1011.1 |
| 20260510083311 | 18 | 23 | 0.0 | 0.0 | 0.00 | 0.00 | 0.00 | 71 | 1010.6 |
| 20260510082806 | 18 | 40 | 0.0 | 1.6 | 0.00 | 0.00 | 0.00 | 71 | 1010.2 |
| 20260510082306 | 18 | 37 | 1.6 | 1.6 | 0.00 | 0.00 | 0.00 | 71 | 1010.1 |
| 20260510081802 | 19 | 49 | 1.6 | 1.6 | 0.00 | 0.00 | 0.00 | 70 | 1009.9 |
| 20260510081258 | 19 | 49 | 1.6 | 3.2 | 0.00 | 0.00 | 0.00 | 70 | 1009.6 |
| 20260510080754 | 19 | 278 | 4.8 | 4.8 | 0.00 | 0.00 | 0.00 | 71 | 1010.0 |
| 20260510080249 | 19 | 42 | 3.2 | 4.8 | 0.00 | 0.00 | 0.00 | 72 | 1009.8 |
| 20260510075746 | 19 | 1 | 4.8 | 6.4 | 0.00 | 0.00 | 0.00 | 70 | 1009.6 |
| 20260510075244 | 19 | 36 | 1.6 | 1.6 | 0.00 | 0.00 | 0.00 | 70 | 1009.0 |
| 20260510074741 | 20 | 72 | 1.6 | 3.2 | 0.00 | 0.00 | 0.00 | 70 | 1008.9 |
| 20260510074237 | 20 | 185 | 4.8 | 4.8 | 0.00 | 0.00 | 0.00 | 68 | 1008.9 |
| 20260510073733 | 20 | 137 | 1.6 | 1.6 | 0.00 | 0.00 | 0.00 | 68 | 1008.5 |
| 20260510073230 | 19 | 131 | 4.8 | 4.8 | 0.00 | 0.00 | 0.00 | 69 | 1008.5 |
| 20260510072725 | 19 | 98 | 3.2 | 3.2 | 0.00 | 0.00 | 0.00 | 70 | 1008.2 |
| 20260510072222 | 18 | 145 | 3.2 | 6.4 | 0.00 | 0.00 | 0.00 | 70 | 1009.2 |
| 20260510071719 | 18 | 67 | 3.2 | 3.2 | 0.00 | 0.00 | 0.00 | 74 | 1010.4 |
| 20260510071215 | 18 | 78 | 6.4 | 9.7 | 0.00 | 0.00 | 0.00 | 75 | 1010.3 |
| 20260510070714 | 18 | 122 | 4.8 | 9.7 | 0.00 | 0.00 | 0.00 | 73 | 1010.2 |
| 20260510070210 | 18 | 93 | 4.8 | 6.4 | 0.00 | 0.00 | 0.00 | 71 | 1010.1 |
| 20260510065706 | 18 | 198 | 4.8 | 9.7 | 0.00 | 0.00 | 0.00 | 71 | 1010.2 |
| 20260510065202 | 19 | 95 | 8.0 | 11.3 | 0.00 | 0.00 | 0.00 | 69 | 1009.5 |
| 20260510064659 | 20 | 140 | 9.7 | 12.9 | 0.00 | 0.00 | 0.00 | 66 | 1009.9 |
| 20260510064156 | 20 | 111 | 6.4 | 9.7 | 0.00 | 0.00 | 0.00 | 62 | 1011.6 |
| 20260510063653 | 20 | 102 | 1.6 | 3.2 | 0.00 | 0.00 | 0.00 | 61 | 1012.8 |
| 20260510063149 | 21 | 162 | 9.7 | 14.5 | 0.00 | 0.00 | 0.00 | 60 | 1013.1 |
| 20260510062646 | 21 | 99 | 1.6 | 3.2 | 0.00 | 0.00 | 0.00 | 59 | 1013.5 |
| 20260510062142 | 21 | 138 | 6.4 | 6.4 | 0.00 | 0.00 | 0.00 | 58 | 1013.4 |
| 20260510061637 | 21 | 173 | 3.2 | 4.8 | 0.00 | 0.00 | 0.00 | 60 | 1012.8 |
| 20260510061135 | 21 | 135 | 1.6 | 3.2 | 0.00 | 0.00 | 0.00 | 60 | 1012.7 |
| 20260510060631 | 21 | 61 | 0.0 | 0.0 | 0.00 | 0.00 | 0.00 | 63 | 1012.7 |
| 20260510060127 | 21 | 69 | 1.6 | 1.6 | 0.00 | 0.00 | 0.00 | 63 | 1012.5 |
| 20260510055624 | 20 | 44 | 0.0 | 0.0 | 0.00 | 0.00 | 0.00 | 65 | 1012.5 |
| 20260510055122 | 21 | 38 | 0.0 | 0.0 | 0.00 | 0.00 | 0.00 | 65 | 1012.4 |
| 20260510054617 | 21 | 41 | 1.6 | 1.6 | 0.00 | 0.00 | 0.00 | 64 | 1012.5 |
| 20260510054112 | 21 | 32 | 0.0 | 1.6 | 0.00 | 0.00 | 0.00 | 60 | 1012.8 |
| 20260510053612 | 21 | 66 | 0.0 | 0.0 | 0.00 | 0.00 | 0.00 | 59 | 1012.8 |
| 20260510053109 | 22 | 66 | 1.6 | 1.6 | 0.00 | 0.00 | 0.00 | 58 | 1012.8 |
| 20260510052605 | 22 | 38 | 3.2 | 3.2 | 0.00 | 0.00 | 0.00 | 57 | 1013.0 |
| 20260510052101 | 22 | 317 | 3.2 | 3.2 | 0.00 | 0.00 | 0.00 | 57 | 1013.1 |
| 20260510051557 | 22 | 43 | 1.6 | 3.2 | 0.00 | 0.00 | 0.00 | 57 | 1013.0 |
| 20260510051054 | 22 | 338 | 3.2 | 4.8 | 0.00 | 0.00 | 0.00 | 56 | 1012.9 |
| 20260510050551 | 22 | 308 | 6.4 | 9.7 | 0.00 | 0.00 | 0.00 | 57 | 1012.8 |
| 20260510050049 | 21 | 8 | 3.2 | 4.8 | 0.00 | 0.00 | 0.00 | 58 | 1012.7 |
| 20260510045546 | 21 | 289 | 4.8 | 4.8 | 0.00 | 0.00 | 0.00 | 61 | 1012.7 |
| 20260510045041 | 20 | 351 | 3.2 | 3.2 | 0.00 | 0.00 | 0.00 | 66 | 1012.0 |
| 20260510044538 | 20 | 43 | 0.0 | 0.0 | 0.00 | 0.00 | 0.00 | 73 | 1011.6 |
| 20260510044036 | 20 | 322 | 4.8 | 4.8 | 0.00 | 0.00 | 0.00 | 69 | 1011.6 |
| 20260510043531 | 19 | 14 | 0.0 | 0.0 | 0.00 | 0.00 | 0.00 | 72 | 1011.5 |
| 20260510043027 | 19 | 30 | 0.0 | 0.0 | 0.00 | 0.00 | 0.00 | 73 | 1011.3 |
| 20260510042521 | 19 | 33 | 0.0 | 0.0 | 0.00 | 0.00 | 0.00 | 74 | 1011.3 |
| 20260510042021 | 19 | 7 | 0.0 | 0.0 | 0.00 | 0.00 | 0.00 | 73 | 1011.2 |
| 20260510041520 | 19 | 51 | 0.0 | 0.0 | 0.00 | 0.00 | 0.00 | 75 | 1011.1 |
| 20260510041017 | 19 | 69 | 0.0 | 0.0 | 0.00 | 0.00 | 0.00 | 75 | 1011.0 |
| 20260510040514 | 19 | 69 | 0.0 | 0.0 | 0.00 | 0.00 | 0.00 | 74 | 1010.9 |
| 20260510040009 | 19 | 64 | 0.0 | 0.0 | 0.00 | 0.00 | 0.00 | 74 | 1011.0 |
| 20260510035506 | 20 | 64 | 0.0 | 0.0 | 0.00 | 0.00 | 0.00 | 73 | 1010.9 |
| 20260510035004 | 20 | 64 | 0.0 | 0.0 | 0.00 | 0.00 | 0.00 | 72 | 1010.8 |
| 20260510034504 | 20 | 64 | 0.0 | 0.0 | 0.00 | 0.00 | 0.00 | 71 | 1010.8 |
| 20260510033959 | 20 | 64 | 0.0 | 0.0 | 0.00 | 0.00 | 0.00 | 70 | 1010.6 |
| 20260510033455 | 20 | 62 | 0.0 | 0.0 | 0.00 | 0.00 | 0.00 | 68 | 1010.8 |
| 20260510032953 | 20 | 56 | 0.0 | 0.0 | 0.00 | 0.00 | 0.00 | 67 | 1010.8 |
| 20260510032451 | 20 | 56 | 0.0 | 0.0 | 0.00 | 0.00 | 0.00 | 66 | 1010.6 |
| 20260510031951 | 20 | 56 | 0.0 | 0.0 | 0.00 | 0.00 | 0.00 | 67 | 1010.7 |
| 20260510031446 | 20 | 56 | 0.0 | 0.0 | 0.00 | 0.00 | 0.00 | 65 | 1010.8 |
| 20260510030942 | 20 | 56 | 0.0 | 0.0 | 0.00 | 0.00 | 0.00 | 67 | 1010.9 |
| 20260510030437 | 20 | 56 | 0.0 | 0.0 | 0.00 | 0.00 | 0.00 | 66 | 1010.8 |
| 20260510025936 | 20 | 56 | 0.0 | 0.0 | 0.00 | 0.00 | 0.00 | 63 | 1010.7 |
| 20260510025433 | 20 | 56 | 0.0 | 0.0 | 0.00 | 0.00 | 0.00 | 62 | 1010.8 |
| 20260510024930 | 21 | 49 | 0.0 | 0.0 | 0.00 | 0.00 | 0.00 | 61 | 1010.5 |
| 20260510024426 | 20 | 49 | 0.0 | 0.0 | 0.00 | 0.00 | 0.00 | 62 | 1010.7 |
| 20260510023922 | 20 | 49 | 0.0 | 0.0 | 0.00 | 0.00 | 0.00 | 62 | 1010.4 |
| 20260510023419 | 20 | 49 | 0.0 | 0.0 | 0.00 | 0.00 | 0.00 | 60 | 1010.1 |
| 20260510022916 | 20 | 49 | 0.0 | 0.0 | 0.00 | 0.00 | 0.00 | 61 | 1009.9 |
| 20260510022415 | 20 | 57 | 0.0 | 0.0 | 0.00 | 0.00 | 0.00 | 60 | 1009.5 |
| 20260510021914 | 20 | 57 | 0.0 | 0.0 | 0.00 | 0.00 | 0.00 | 60 | 1009.3 |
| 20260510021413 | 21 | 60 | 0.0 | 0.0 | 0.00 | 0.00 | 0.00 | 57 | 1009.0 |
| 20260510020909 | 21 | 60 | 0.0 | 0.0 | 0.00 | 0.00 | 0.00 | 56 | 1009.1 |
| 20260510020404 | 21 | 60 | 0.0 | 0.0 | 0.00 | 0.00 | 0.00 | 54 | 1008.9 |
| 20260510015900 | 21 | 60 | 0.0 | 0.0 | 0.00 | 0.00 | 0.00 | 54 | 1008.9 |
| 20260510015355 | 21 | 60 | 0.0 | 0.0 | 0.00 | 0.00 | 0.00 | 52 | 1008.5 |
| 20260510014851 | 21 | 61 | 0.0 | 0.0 | 0.00 | 0.00 | 0.00 | 51 | 1008.5 |
| 20260510014349 | 22 | 61 | 0.0 | 0.0 | 0.00 | 0.00 | 0.00 | 51 | 1008.6 |
| 20260510013845 | 22 | 60 | 0.0 | 0.0 | 0.00 | 0.00 | 0.00 | 50 | 1008.3 |
| 20260510013340 | 22 | 60 | 0.0 | 0.0 | 0.00 | 0.00 | 0.00 | 49 | 1008.2 |
| 20260510012835 | 22 | 61 | 0.0 | 0.0 | 0.00 | 0.00 | 0.00 | 48 | 1008.3 |
| 20260510012335 | 22 | 61 | 0.0 | 0.0 | 0.00 | 0.00 | 0.00 | 47 | 1008.3 |
| 20260510011830 | 23 | 62 | 0.0 | 0.0 | 0.00 | 0.00 | 0.00 | 47 | 1008.2 |
| 20260510011326 | 23 | 63 | 0.0 | 0.0 | 0.00 | 0.00 | 0.00 | 46 | 1008.1 |
| 20260510010823 | 24 | 62 | 0.0 | 0.0 | 0.00 | 0.00 | 0.00 | 45 | 1008.2 |
| 20260510010320 | 25 | 62 | 0.0 | 0.0 | 0.00 | 0.00 | 0.00 | 43 | 1008.0 |
| 20260510005816 | 25 | 61 | 0.0 | 1.6 | 0.00 | 0.00 | 0.00 | 41 | 1007.9 |
| 20260510005313 | 25 | 71 | 0.0 | 0.0 | 0.00 | 0.00 | 0.00 | 40 | 1007.9 |
| 20260510004811 | 26 | 69 | 0.0 | 0.0 | 0.00 | 0.00 | 0.00 | 40 | 1007.9 |
| 20260510004308 | 26 | 72 | 0.0 | 0.0 | 0.00 | 0.00 | 0.00 | 39 | 1007.9 |
| 20260510003805 | 26 | 76 | 0.0 | 0.0 | 0.00 | 0.00 | 0.00 | 38 | 1008.1 |
| 20260510003302 | 26 | 68 | 1.6 | 3.2 | 0.00 | 0.00 | 0.00 | 38 | 1007.9 |
| 20260510002801 | 27 | 95 | 3.2 | 3.2 | 0.00 | 0.00 | 0.00 | 36 | 1007.6 |
| 20260510002258 | 27 | 70 | 0.0 | 0.0 | 0.00 | 0.00 | 0.00 | 38 | 1007.8 |
| 20260510001755 | 27 | 65 | 0.0 | 0.0 | 0.00 | 0.00 | 0.00 | 40 | 1007.7 |
| 20260510001253 | 27 | 61 | 1.6 | 1.6 | 0.00 | 0.00 | 0.00 | 38 | 1007.8 |
| 20260510000748 | 27 | 77 | 0.0 | 1.6 | 0.00 | 0.00 | 0.00 | 37 | 1007.9 |
| 20260510000248 | 27 | 50 | 0.0 | 1.6 | 0.00 | 0.00 | 0.00 | 39 | 1007.8 |
| 20260509235743 | 27 | 86 | 3.2 | 6.4 | 0.00 | 0.00 | 0.00 | 38 | 1008.0 |
| 20260509235240 | 27 | 68 | 1.6 | 1.6 | 0.00 | 0.00 | 0.00 | 35 | 1007.9 |
| 20260509234735 | 27 | 62 | 0.0 | 0.0 | 0.00 | 0.00 | 0.00 | 37 | 1007.7 |
| 20260509234232 | 27 | 116 | 4.8 | 6.4 | 0.00 | 0.00 | 0.00 | 35 | 1007.9 |
| 20260509233731 | 28 | 85 | 1.6 | 3.2 | 0.00 | 0.00 | 0.00 | 35 | 1008.0 |
| 20260509233228 | 28 | 58 | 0.0 | 0.0 | 0.00 | 0.00 | 0.00 | 37 | 1008.0 |
| 20260509232724 | 28 | 86 | 1.6 | 1.6 | 0.00 | 0.00 | 0.00 | 34 | 1007.9 |
| 20260509232221 | 28 | 61 | 1.6 | 1.6 | 0.00 | 0.00 | 0.00 | 37 | 1008.0 |
| 20260509231717 | 28 | 56 | 1.6 | 1.6 | 0.00 | 0.00 | 0.00 | 38 | 1007.9 |
| 20260509231215 | 28 | 80 | 1.6 | 3.2 | 0.00 | 0.00 | 0.00 | 37 | 1008.0 |
| 20260509230713 | 28 | 114 | 3.2 | 4.8 | 0.00 | 0.00 | 0.00 | 36 | 1008.0 |
| 20260509230209 | 28 | 68 | 1.6 | 3.2 | 0.00 | 0.00 | 0.00 | 37 | 1008.0 |
| 20260509225704 | 28 | 150 | 6.4 | 6.4 | 0.00 | 0.00 | 0.00 | 34 | 1008.0 |
| 20260509225200 | 28 | 61 | 3.2 | 3.2 | 0.00 | 0.00 | 0.00 | 34 | 1008.4 |
| 20260509224656 | 28 | 64 | 1.6 | 1.6 | 0.00 | 0.00 | 0.00 | 33 | 1008.2 |
| 20260509224153 | 28 | 60 | 0.0 | 1.6 | 0.00 | 0.00 | 0.00 | 35 | 1008.2 |
| 20260509223650 | 28 | 63 | 0.0 | 0.0 | 0.00 | 0.00 | 0.00 | 38 | 1008.5 |
| 20260509223147 | 28 | 41 | 0.0 | 1.6 | 0.00 | 0.00 | 0.00 | 34 | 1008.4 |
| 20260509222644 | 28 | 53 | 1.6 | 3.2 | 0.00 | 0.00 | 0.00 | 34 | 1008.1 |
| 20260509222139 | 28 | 75 | 3.2 | 3.2 | 0.00 | 0.00 | 0.00 | 33 | 1008.2 |
| 20260509221636 | 29 | 83 | 1.6 | 3.2 | 0.00 | 0.00 | 0.00 | 31 | 1008.3 |
| 20260509221132 | 29 | 95 | 1.6 | 1.6 | 0.00 | 0.00 | 0.00 | 28 | 1008.3 |
| 20260509220628 | 29 | 97 | 1.6 | 1.6 | 0.00 | 0.00 | 0.00 | 25 | 1008.4 |
| 20260509220124 | 29 | 79 | 1.6 | 1.6 | 0.00 | 0.00 | 0.00 | 27 | 1008.5 |
| 20260509215620 | 29 | 51 | 1.6 | 1.6 | 0.00 | 0.00 | 0.00 | 25 | 1008.4 |
| 20260509215117 | 29 | 47 | 1.6 | 1.6 | 0.00 | 0.00 | 0.00 | 24 | 1008.4 |
| 20260509214614 | 29 | 61 | 1.6 | 3.2 | 0.00 | 0.00 | 0.00 | 25 | 1008.3 |
| 20260509214111 | 29 | 44 | 1.6 | 3.2 | 0.00 | 0.00 | 0.00 | 29 | 1008.5 |
| 20260509213607 | 29 | 4 | 3.2 | 3.2 | 0.00 | 0.00 | 0.00 | 27 | 1008.5 |
| 20260509213104 | 30 | 52 | 1.6 | 1.6 | 0.00 | 0.00 | 0.00 | 28 | 1008.6 |
| 20260509212601 | 29 | 42 | 1.6 | 1.6 | 0.00 | 0.00 | 0.00 | 26 | 1008.6 |
| 20260509212058 | 29 | 48 | 0.0 | 1.6 | 0.00 | 0.00 | 0.00 | 29 | 1008.6 |
| 20260509211553 | 29 | 53 | 0.0 | 0.0 | 0.00 | 0.00 | 0.00 | 31 | 1008.9 |
| 20260509211050 | 30 | 81 | 1.6 | 4.8 | 0.00 | 0.00 | 0.00 | 28 | 1008.8 |
| 20260509210547 | 30 | 53 | 0.0 | 1.6 | 0.00 | 0.00 | 0.00 | 36 | 1008.9 |
| 20260509210044 | 30 | 83 | 0.0 | 1.6 | 0.00 | 0.00 | 0.00 | 34 | 1009.2 |
| 20260509205543 | 30 | 79 | 0.0 | 0.0 | 0.00 | 0.00 | 0.00 | 34 | 1009.2 |
| 20260509205039 | 29 | 46 | 1.6 | 1.6 | 0.00 | 0.00 | 0.00 | 34 | 1009.1 |
| 20260509204536 | 29 | 48 | 1.6 | 3.2 | 0.00 | 0.00 | 0.00 | 33 | 1009.2 |
| 20260509204032 | 28 | 75 | 0.0 | 0.0 | 0.00 | 0.00 | 0.00 | 34 | 1009.2 |
| 20260509203528 | 28 | 60 | 1.6 | 1.6 | 0.00 | 0.00 | 0.00 | 33 | 1009.5 |
| 20260509203027 | 30 | 86 | 1.6 | 3.2 | 0.00 | 0.00 | 0.00 | 30 | 1009.3 |
| 20260509202527 | 30 | 64 | 1.6 | 1.6 | 0.00 | 0.00 | 0.00 | 34 | 1009.2 |
| 20260509202022 | 30 | 110 | 3.2 | 3.2 | 0.00 | 0.00 | 0.00 | 33 | 1009.4 |
| 20260509201517 | 29 | 58 | 0.0 | 1.6 | 0.00 | 0.00 | 0.00 | 31 | 1009.4 |
| 20260509201016 | 29 | 35 | 0.0 | 0.0 | 0.00 | 0.00 | 0.00 | 37 | 1009.4 |
| 20260509200515 | 29 | 78 | 3.2 | 4.8 | 0.00 | 0.00 | 0.00 | 30 | 1009.3 |
| 20260509200013 | 29 | 92 | 0.0 | 1.6 | 0.00 | 0.00 | 0.00 | 37 | 1009.5 |
| 20260509195508 | 29 | 107 | 1.6 | 3.2 | 0.00 | 0.00 | 0.00 | 33 | 1009.6 |
| 20260509195007 | 29 | 59 | 3.2 | 4.8 | 0.00 | 0.00 | 0.00 | 31 | 1009.5 |
| 20260509194503 | 29 | 45 | 3.2 | 3.2 | 0.00 | 0.00 | 0.00 | 31 | 1009.6 |
| 20260509194000 | 30 | 104 | 3.2 | 3.2 | 0.00 | 0.00 | 0.00 | 31 | 1009.9 |
| 20260509193500 | 29 | 86 | 0.0 | 0.0 | 0.00 | 0.00 | 0.00 | 35 | 1009.9 |
| 20260509192957 | 29 | 85 | 3.2 | 3.2 | 0.00 | 0.00 | 0.00 | 34 | 1009.7 |
| 20260509192453 | 29 | 30 | 1.6 | 1.6 | 0.00 | 0.00 | 0.00 | 32 | 1009.9 |
| 20260509191948 | 29 | 86 | 0.0 | 1.6 | 0.00 | 0.00 | 0.00 | 33 | 1010.0 |
| 20260509191444 | 29 | 60 | 0.0 | 1.6 | 0.00 | 0.00 | 0.00 | 34 | 1010.0 |
| 20260509190940 | 29 | 34 | 1.6 | 1.6 | 0.00 | 0.00 | 0.00 | 30 | 1009.9 |
| 20260509190437 | 29 | 45 | 1.6 | 1.6 | 0.00 | 0.00 | 0.00 | 30 | 1009.9 |
| 20260509185935 | 29 | 65 | 1.6 | 1.6 | 0.00 | 0.00 | 0.00 | 34 | 1009.9 |
| 20260509185432 | 28 | 47 | 1.6 | 1.6 | 0.00 | 0.00 | 0.00 | 38 | 1009.9 |
| 20260509184928 | 28 | 50 | 4.8 | 6.4 | 0.00 | 0.00 | 0.00 | 36 | 1009.9 |
| 20260509184426 | 28 | 59 | 3.2 | 3.2 | 0.00 | 0.00 | 0.00 | 36 | 1009.8 |
| 20260509183922 | 29 | 75 | 0.0 | 0.0 | 0.00 | 0.00 | 0.00 | 41 | 1009.9 |
| 20260509183417 | 29 | 23 | 1.6 | 1.6 | 0.00 | 0.00 | 0.00 | 41 | 1010.1 |
| 20260509182914 | 28 | 93 | 1.6 | 1.6 | 0.00 | 0.00 | 0.00 | 41 | 1010.2 |
| 20260509182410 | 28 | 58 | 0.0 | 0.0 | 0.00 | 0.00 | 0.00 | 42 | 1010.1 |
| 20260509181908 | 28 | 64 | 1.6 | 1.6 | 0.00 | 0.00 | 0.00 | 41 | 1010.3 |
| 20260509181405 | 28 | 48 | 1.6 | 1.6 | 0.00 | 0.00 | 0.00 | 42 | 1010.3 |
| 20260509180902 | 28 | 62 | 0.0 | 1.6 | 0.00 | 0.00 | 0.00 | 43 | 1010.3 |
| 20260509180358 | 28 | 51 | 0.0 | 1.6 | 0.00 | 0.00 | 0.00 | 44 | 1010.6 |
| 20260509175855 | 28 | 357 | 3.2 | 3.2 | 0.00 | 0.00 | 0.00 | 40 | 1010.7 |
| 20260509175351 | 27 | 56 | 0.0 | 0.0 | 0.00 | 0.00 | 0.00 | 47 | 1010.6 |
| 20260509174847 | 27 | 96 | 0.0 | 1.6 | 0.00 | 0.00 | 0.00 | 46 | 1010.8 |
| 20260509174343 | 27 | 79 | 0.0 | 1.6 | 0.00 | 0.00 | 0.00 | 49 | 1010.8 |
| 20260509173839 | 27 | 52 | 0.0 | 0.0 | 0.00 | 0.00 | 0.00 | 46 | 1010.8 |
| 20260509173335 | 27 | 148 | 0.0 | 1.6 | 0.00 | 0.00 | 0.00 | 49 | 1011.0 |
| 20260509172831 | 27 | 92 | 1.6 | 3.2 | 0.00 | 0.00 | 0.00 | 50 | 1011.0 |
| 20260509172328 | 27 | 252 | 3.2 | 4.8 | 0.00 | 0.00 | 0.00 | 52 | 1011.0 |
| 20260509171824 | 27 | 51 | 0.0 | 1.6 | 0.00 | 0.00 | 0.00 | 55 | 1010.9 |
| 20260509171320 | 26 | 88 | 1.6 | 3.2 | 0.00 | 0.00 | 0.00 | 56 | 1011.0 |
| 20260509170816 | 26 | 71 | 0.0 | 0.0 | 0.00 | 0.00 | 0.00 | 58 | 1011.1 |
| 20260509170312 | 26 | 57 | 0.0 | 0.0 | 0.00 | 0.00 | 0.00 | 62 | 1011.0 |
| 20260509165812 | 26 | 90 | 0.0 | 1.6 | 0.00 | 0.00 | 0.00 | 61 | 1011.1 |
| 20260509165307 | 26 | 64 | 0.0 | 0.0 | 0.00 | 0.00 | 0.00 | 59 | 1011.2 |
| 20260509164803 | 26 | 88 | 3.2 | 3.2 | 0.00 | 0.00 | 0.00 | 60 | 1011.2 |
| 20260509164259 | 26 | 64 | 0.0 | 0.0 | 0.00 | 0.00 | 0.00 | 64 | 1011.2 |
| 20260509163756 | 25 | 73 | 1.6 | 1.6 | 0.00 | 0.00 | 0.00 | 66 | 1011.2 |
| 20260509163253 | 25 | 45 | 0.0 | 1.6 | 0.00 | 0.00 | 0.00 | 65 | 1011.2 |
| 20260509162752 | 25 | 81 | 1.6 | 1.6 | 0.00 | 0.00 | 0.00 | 62 | 1011.1 |
| 20260509162251 | 25 | 76 | 3.2 | 4.8 | 0.00 | 0.00 | 0.00 | 65 | 1011.2 |
| 20260509161747 | 25 | 44 | 0.0 | 1.6 | 0.00 | 0.00 | 0.00 | 68 | 1011.2 |
| 20260509161243 | 25 | 48 | 0.0 | 0.0 | 0.00 | 0.00 | 0.00 | 70 | 1011.0 |
| 20260509160738 | 24 | 56 | 0.0 | 0.0 | 0.00 | 0.00 | 0.00 | 71 | 1011.2 |
| 20260509160235 | 24 | 55 | 0.0 | 0.0 | 0.00 | 0.00 | 0.00 | 72 | 1011.0 |
| 20260509155730 | 24 | 75 | 3.2 | 3.2 | 0.00 | 0.00 | 0.00 | 71 | 1011.1 |
| 20260509155227 | 24 | 75 | 1.6 | 1.6 | 0.00 | 0.00 | 0.00 | 73 | 1010.9 |
| 20260509154723 | 23 | 49 | 1.6 | 1.6 | 0.00 | 0.00 | 0.00 | 71 | 1010.9 |
| 20260509154220 | 23 | 48 | 0.0 | 0.0 | 0.00 | 0.00 | 0.00 | 70 | 1010.9 |
| 20260509153717 | 23 | 51 | 1.6 | 1.6 | 0.00 | 0.00 | 0.00 | 70 | 1010.8 |
| 20260509153214 | 23 | 41 | 0.0 | 0.0 | 0.00 | 0.00 | 0.00 | 72 | 1011.0 |
| 20260509152710 | 23 | 89 | 1.6 | 3.2 | 0.00 | 0.00 | 0.00 | 70 | 1010.8 |
| 20260509152207 | 22 | 66 | 0.0 | 0.0 | 0.00 | 0.00 | 0.00 | 76 | 1010.9 |
| 20260509151704 | 22 | 50 | 0.0 | 0.0 | 0.00 | 0.00 | 0.00 | 75 | 1011.0 |
| 20260509151201 | 22 | 57 | 0.0 | 0.0 | 0.00 | 0.00 | 0.00 | 77 | 1010.9 |
| 20260509150658 | 22 | 53 | 0.0 | 0.0 | 0.00 | 0.00 | 0.00 | 75 | 1011.0 |
| 20260509150156 | 22 | 48 | 0.0 | 0.0 | 0.00 | 0.00 | 0.00 | 75 | 1011.0 |
| 20260509145652 | 22 | 118 | 1.6 | 1.6 | 0.00 | 0.00 | 0.00 | 76 | 1010.9 |
| 20260509145147 | 21 | 52 | 0.0 | 0.0 | 0.00 | 0.00 | 0.00 | 75 | 1011.0 |
| 20260509144644 | 21 | 45 | 0.0 | 1.6 | 0.00 | 0.00 | 0.00 | 78 | 1011.1 |
| 20260509144142 | 21 | 28 | 0.0 | 0.0 | 0.00 | 0.00 | 0.00 | 79 | 1011.1 |
| 20260509143639 | 20 | 61 | 0.0 | 0.0 | 0.00 | 0.00 | 0.00 | 81 | 1011.2 |
| 20260509143136 | 20 | 65 | 0.0 | 1.6 | 0.00 | 0.00 | 0.00 | 82 | 1011.2 |
| 20260509142631 | 19 | 50 | 0.0 | 0.0 | 0.00 | 0.00 | 0.00 | 83 | 1011.2 |
| 20260509142128 | 19 | 60 | 0.0 | 0.0 | 0.00 | 0.00 | 0.00 | 84 | 1011.1 |
| 20260509141624 | 18 | 48 | 0.0 | 0.0 | 0.00 | 0.00 | 0.00 | 86 | 1011.2 |
| 20260509141121 | 19 | 86 | 0.0 | 0.0 | 0.00 | 0.00 | 0.00 | 88 | 1011.1 |
| 20260509140618 | 18 | 55 | 0.0 | 0.0 | 0.00 | 0.00 | 0.00 | 98 | 1011.0 |
| 20260509140116 | 17 | 59 | 0.0 | 0.0 | 0.00 | 0.00 | 0.00 | 98 | 1010.9 |
| 20260509135612 | 16 | 55 | 0.0 | 0.0 | 0.00 | 0.00 | 0.00 | 98 | 1011.1 |
| 20260509135111 | 16 | 57 | 0.0 | 0.0 | 0.00 | 0.00 | 0.00 | 98 | 1010.9 |
| 20260509134607 | 15 | 29 | 0.0 | 0.0 | 0.00 | 0.00 | 0.00 | 98 | 1010.7 |
| 20260509134104 | 15 | 66 | 0.0 | 0.0 | 0.00 | 0.00 | 0.00 | 99 | 1011.0 |
| 20260509133601 | 15 | 30 | 0.0 | 0.0 | 0.00 | 0.00 | 0.00 | 99 | 1010.8 |
| 20260509133059 | 15 | 258 | 0.0 | 0.0 | 0.00 | 0.00 | 0.00 | 99 | 1010.7 |